Time;durP1;ratioP1;P1;durP2;ratioP2;P2;SDS_P1;SDS_P2;PMS_P1;PMS_P2;Temp;Humidity;BMP_temperature;BMP_pressure;BME280_temperature;BME280_humidity;BME280_pressure;Samples;Min_cycle;Max_cycle;Signal;HPM_P1;HPM_P2
2023/04/18 00:00:36;;;;;;;14.77;10.40;;;7.80;99.90;;;;;;6044723;23;92366;-74
2023/04/18 00:03:03;;;;;;;12.73;9.93;;;7.70;99.90;;;;;;6069373;23;92557;-74
2023/04/18 00:05:30;;;;;;;13.05;10.40;;;7.70;99.90;;;;;;6095656;23;93344;-74
2023/04/18 00:07:57;;;;;;;11.45;9.98;;;7.70;99.90;;;;;;6095225;23;93152;-74
2023/04/18 00:10:24;;;;;;;12.43;10.68;;;7.70;99.90;;;;;;6069208;23;92414;-74
2023/04/18 00:12:51;;;;;;;12.85;10.00;;;7.60;99.90;;;;;;6069786;23;99598;-74
2023/04/18 00:15:18;;;;;;;11.18;9.98;;;7.60;99.90;;;;;;6069332;23;93185;-74
2023/04/18 00:17:46;;;;;;;11.43;9.30;;;7.60;99.90;;;;;;6095328;23;92937;-74
2023/04/18 00:20:13;;;;;;;10.85;9.20;;;7.60;99.90;;;;;;6068300;23;95093;-74
2023/04/18 00:22:45;;;;;;;11.48;8.68;;;7.60;99.90;;;;;;6069494;23;93520;-74
2023/04/18 00:25:12;;;;;;;11.63;9.63;;;7.60;99.90;;;;;;6095973;23;93091;-74
2023/04/18 00:27:40;;;;;;;11.50;8.82;;;7.60;99.90;;;;;;6069472;23;101432;-74
2023/04/18 00:30:08;;;;;;;9.80;8.10;;;7.60;99.90;;;;;;6069869;23;93115;-74
2023/04/18 00:32:37;;;;;;;12.05;9.25;;;7.70;99.90;;;;;;6095772;23;92384;-74
2023/04/18 00:35:04;;;;;;;11.77;8.85;;;7.70;99.90;;;;;;6069589;23;94161;-74
2023/04/18 00:37:31;;;;;;;12.05;8.80;;;7.60;99.90;;;;;;6069822;23;95720;-74
2023/04/18 00:39:58;;;;;;;12.38;9.35;;;7.60;99.90;;;;;;6070347;23;92401;-74
2023/04/18 00:42:27;;;;;;;10.52;9.07;;;7.50;99.90;;;;;;6069494;23;92568;-74
2023/04/18 00:44:54;;;;;;;11.27;9.13;;;7.50;99.90;;;;;;6067912;23;98029;-74
2023/04/18 00:47:21;;;;;;;10.65;9.32;;;7.50;99.90;;;;;;6045320;23;97889;-74
2023/04/18 00:49:49;;;;;;;12.27;9.25;;;7.40;99.90;;;;;;6045708;23;92413;-74
2023/04/18 00:52:17;;;;;;;12.32;9.43;;;7.40;99.90;;;;;;6069787;23;92413;-74
2023/04/18 00:54:45;;;;;;;10.93;9.80;;;7.40;99.90;;;;;;6069139;23;95834;-74
2023/04/18 00:57:12;;;;;;;11.35;8.95;;;7.30;99.90;;;;;;6069438;23;96097;-74
2023/04/18 00:59:40;;;;;;;13.02;9.60;;;7.30;99.90;;;;;;6069550;23;92518;-74
2023/04/18 01:02:07;;;;;;;13.98;10.30;;;7.30;99.90;;;;;;6069865;23;92232;-74
2023/04/18 01:04:34;;;;;;;12.63;10.48;;;7.30;99.90;;;;;;6094101;23;93234;-74
2023/04/18 01:07:02;;;;;;;14.25;10.23;;;7.20;99.90;;;;;;6068691;23;95499;-74
2023/04/18 01:09:29;;;;;;;10.55;8.85;;;7.30;99.90;;;;;;6043706;23;95329;-73
2023/04/18 01:11:56;;;;;;;10.38;8.80;;;7.30;99.90;;;;;;6069620;23;92403;-74
2023/04/18 01:14:23;;;;;;;13.15;9.43;;;7.30;99.90;;;;;;6045232;23;95759;-74
2023/04/18 01:16:50;;;;;;;12.90;10.18;;;7.30;99.90;;;;;;6069313;23;93978;-74
2023/04/18 01:19:18;;;;;;;12.32;10.07;;;7.30;99.90;;;;;;6044837;23;92931;-74
2023/04/18 01:21:45;;;;;;;11.93;10.20;;;7.40;99.90;;;;;;6068542;23;92516;-74
2023/04/18 01:24:14;;;;;;;11.98;9.77;;;7.40;99.90;;;;;;6068511;23;95784;-74
2023/04/18 01:26:43;;;;;;;15.98;10.65;;;7.40;99.90;;;;;;6070048;23;92915;-74
2023/04/18 01:29:11;;;;;;;13.23;9.90;;;7.40;99.90;;;;;;6044677;23;93098;-75
2023/04/18 01:31:39;;;;;;;11.82;10.15;;;7.30;99.90;;;;;;6069179;23;92506;-74
2023/04/18 01:34:07;;;;;;;14.48;10.18;;;7.30;99.90;;;;;;6066664;23;109611;-73
2023/04/18 01:36:35;;;;;;;13.38;10.65;;;7.30;99.90;;;;;;6067868;23;98244;-74
2023/04/18 01:39:02;;;;;;;13.70;10.52;;;7.30;99.90;;;;;;6068583;23;92468;-74
2023/04/18 01:41:31;;;;;;;14.50;11.07;;;7.20;99.90;;;;;;6044854;23;92952;-74
2023/04/18 01:43:58;;;;;;;15.32;10.93;;;7.20;99.90;;;;;;6069380;23;93223;-74
2023/04/18 01:46:26;;;;;;;12.60;10.38;;;7.20;99.90;;;;;;6068624;23;95603;-74
2023/04/18 01:48:53;;;;;;;16.50;10.65;;;7.20;99.90;;;;;;6068868;23;92490;-74
2023/04/18 01:51:20;;;;;;;13.93;10.48;;;7.20;99.90;;;;;;6045119;23;91643;-74
2023/04/18 01:53:47;;;;;;;13.43;10.98;;;7.20;99.90;;;;;;6094549;23;93805;-74
2023/04/18 01:56:14;;;;;;;14.80;10.80;;;7.20;99.90;;;;;;6094689;23;93085;-74
2023/04/18 01:58:41;;;;;;;12.98;10.18;;;7.30;99.90;;;;;;6042702;23;94872;-74
2023/04/18 02:01:08;;;;;;;10.68;7.88;;;7.20;99.90;;;;;;6044654;23;92459;-74
2023/04/18 02:03:35;;;;;;;14.57;10.18;;;7.30;99.90;;;;;;6044626;23;95903;-74
2023/04/18 02:06:04;;;;;;;15.20;11.30;;;7.30;99.90;;;;;;6068408;23;95545;-74
2023/04/18 02:08:34;;;;;;;15.02;11.93;;;7.40;99.90;;;;;;6068353;23;92446;-74
2023/04/18 02:11:04;;;;;;;14.48;10.32;;;7.40;99.90;;;;;;6068764;23;92529;-74
2023/04/18 02:13:31;;;;;;;16.00;10.80;;;7.40;99.90;;;;;;6043987;23;95624;-74
2023/04/18 02:15:58;;;;;;;16.30;12.45;;;7.50;99.90;;;;;;6095830;23;92962;-74
2023/04/18 02:18:25;;;;;;;13.75;10.38;;;7.60;99.90;;;;;;6070174;23;92417;-74
2023/04/18 02:20:52;;;;;;;13.43;9.10;;;7.60;99.90;;;;;;6045117;23;92472;-74
2023/04/18 02:23:21;;;;;;;13.88;11.15;;;7.60;99.90;;;;;;6068489;23;98287;-74
2023/04/18 02:25:48;;;;;;;12.57;10.20;;;7.70;99.90;;;;;;6069113;23;97766;-74
2023/04/18 02:28:16;;;;;;;14.70;11.30;;;7.70;99.90;;;;;;6069574;23;92446;-74
2023/04/18 02:30:43;;;;;;;15.50;11.88;;;7.80;99.90;;;;;;6069408;23;92564;-74
2023/04/18 02:33:10;;;;;;;15.30;10.57;;;7.80;99.90;;;;;;6069479;23;95684;-74
2023/04/18 02:35:37;;;;;;;11.95;9.80;;;7.80;99.90;;;;;;6095430;23;93018;-74
2023/04/18 02:38:05;;;;;;;13.15;10.57;;;7.80;99.90;;;;;;6070415;23;92512;-73
2023/04/18 02:40:32;;;;;;;11.45;9.48;;;7.80;99.90;;;;;;6046120;23;92098;-74
2023/04/18 02:42:59;;;;;;;13.35;11.07;;;7.80;99.90;;;;;;6095999;23;93160;-74
2023/04/18 02:45:26;;;;;;;12.60;9.65;;;7.90;99.90;;;;;;6069354;23;95314;-74
2023/04/18 02:47:56;;;;;;;13.02;11.05;;;7.90;99.90;;;;;;6044861;23;94790;-74
2023/04/18 02:50:26;;;;;;;14.30;10.73;;;7.90;99.90;;;;;;6095877;23;92403;-74
2023/04/18 02:52:54;;;;;;;12.50;11.02;;;8.00;99.90;;;;;;6069292;23;95756;-74
2023/04/18 02:55:26;;;;;;;12.85;10.68;;;8.00;99.90;;;;;;6069194;23;94234;-74
2023/04/18 02:57:56;;;;;;;12.50;8.63;;;8.00;99.90;;;;;;6069195;23;92712;-74
2023/04/18 03:00:42;;;;;;;10.73;8.88;;;8.00;99.90;;;;;;6096460;23;92300;-74
2023/04/18 03:03:28;;;;;;;12.50;8.75;;;8.00;99.90;;;;;;6069718;23;94195;-74
2023/04/18 03:06:21;;;;;;;12.48;9.88;;;8.00;99.90;;;;;;6090553;23;93772;-74
2023/04/18 03:08:48;;;;;;;13.70;11.27;;;8.00;99.90;;;;;;6045716;23;92413;-74
2023/04/18 03:11:16;;;;;;;14.23;9.98;;;8.00;99.90;;;;;;6069408;23;92502;-74
2023/04/18 03:13:43;;;;;;;10.98;9.80;;;8.00;99.90;;;;;;6067341;23;96601;-73
2023/04/18 03:16:11;;;;;;;14.48;10.15;;;8.10;99.90;;;;;;6045836;23;97445;-74
2023/04/18 03:18:38;;;;;;;11.60;10.00;;;8.10;99.90;;;;;;6069496;23;92380;-74
2023/04/18 03:21:06;;;;;;;12.38;8.18;;;8.10;99.90;;;;;;6095506;23;92468;-74
2023/04/18 03:23:33;;;;;;;15.10;10.15;;;8.10;99.90;;;;;;6069728;23;95680;-73
2023/04/18 03:26:07;;;;;;;14.25;9.32;;;8.10;99.90;;;;;;6044717;23;95382;-73
2023/04/18 03:28:36;;;;;;;;;;;8.10;99.90;;;;;;6070811;23;92417;-74
2023/04/18 03:31:04;;;;;;;13.75;9.05;;;8.00;99.90;;;;;;6071853;23;92382;-74
2023/04/18 03:33:33;;;;;;;12.68;10.25;;;8.00;99.90;;;;;;6046095;23;94633;-74
2023/04/18 03:36:07;;;;;;;15.00;10.20;;;8.00;99.90;;;;;;6068691;23;95370;-74
2023/04/18 03:38:34;;;;;;;11.98;10.38;;;7.90;99.90;;;;;;6067737;23;95341;-74
2023/04/18 03:41:02;;;;;;;13.55;10.73;;;7.90;99.90;;;;;;6044996;23;92455;-74
2023/04/18 03:43:33;;;;;;;11.35;9.93;;;7.90;99.90;;;;;;6045521;23;95051;-74
2023/04/18 03:46:00;;;;;;;12.45;9.45;;;7.90;99.90;;;;;;6045466;23;95971;-74
2023/04/18 03:48:34;;;;;;;16.65;11.15;;;7.70;99.90;;;;;;6069961;23;92438;-74
2023/04/18 03:51:02;;;;;;;11.85;9.45;;;7.80;99.90;;;;;;6068793;23;92618;-73
2023/04/18 03:53:30;;;;;;;12.27;9.80;;;7.70;99.90;;;;;;6045723;23;95517;-74
2023/04/18 03:55:57;;;;;;;14.63;11.02;;;7.80;99.90;;;;;;6069720;23;95615;-74
2023/04/18 03:58:37;;;;;;;13.18;9.95;;;7.80;99.90;;;;;;6047704;23;92370;-74
2023/04/18 04:01:06;;;;;;;15.02;10.70;;;7.80;99.90;;;;;;6045507;23;92413;-74
2023/04/18 04:03:33;;;;;;;12.65;9.85;;;7.80;99.90;;;;;;6043417;23;98196;-74
2023/04/18 04:06:00;;;;;;;14.25;10.85;;;7.80;99.90;;;;;;6095567;23;94142;-74
2023/04/18 04:08:27;;;;;;;13.85;10.10;;;7.80;99.90;;;;;;6069676;23;92431;-74
2023/04/18 04:10:55;;;;;;;13.85;10.43;;;7.80;99.90;;;;;;6045000;23;92769;-74
2023/04/18 04:13:23;;;;;;;14.25;10.60;;;7.80;99.90;;;;;;6044735;23;95190;-74
2023/04/18 04:15:51;;;;;;;11.73;9.73;;;7.90;99.90;;;;;;6044775;23;95539;-74
2023/04/18 04:18:17;;;;;;;11.00;8.68;;;7.90;99.90;;;;;;6069693;23;92375;-74
2023/04/18 04:20:45;;;;;;;13.55;9.50;;;7.90;99.90;;;;;;6070142;23;91773;-74
2023/04/18 04:23:21;;;;;;;11.45;9.45;;;7.90;99.90;;;;;;6046850;23;94267;-74
2023/04/18 04:25:48;;;;;;;13.45;10.07;;;7.90;99.90;;;;;;6095905;23;92921;-74
2023/04/18 04:28:34;;;;;;;13.35;9.55;;;7.90;99.90;;;;;;6047399;23;94831;-74
2023/04/18 04:31:08;;;;;;;12.65;9.80;;;7.90;99.90;;;;;;6069527;23;92430;-74
2023/04/18 04:33:37;;;;;;;11.27;9.10;;;7.90;99.90;;;;;;6069819;23;95801;-74
2023/04/18 04:36:09;;;;;;;10.02;9.00;;;7.90;99.90;;;;;;6069306;23;95187;-74
2023/04/18 04:38:37;;;;;;;11.98;10.30;;;7.90;99.90;;;;;;6070034;23;92549;-74
2023/04/18 04:41:05;;;;;;;11.40;9.00;;;7.90;99.90;;;;;;6044963;23;92972;-74
2023/04/18 04:43:33;;;;;;;15.13;9.52;;;8.00;99.90;;;;;;6066467;23;99213;-74
2023/04/18 04:46:02;;;;;;;10.50;9.30;;;8.00;99.90;;;;;;6042015;23;100051;-74
2023/04/18 04:48:29;;;;;;;12.05;10.02;;;8.10;99.90;;;;;;6041914;23;98516;-74
2023/04/18 04:50:58;;;;;;;12.15;10.35;;;8.10;99.90;;;;;;6091219;23;98767;-74
2023/04/18 04:53:27;;;;;;;11.93;8.85;;;8.20;99.90;;;;;;6064341;23;101957;-74
2023/04/18 04:55:54;;;;;;;12.38;9.60;;;8.20;99.90;;;;;;6065558;23;101919;-74
2023/04/18 04:58:21;;;;;;;10.93;9.63;;;8.20;99.90;;;;;;6066022;23;98530;-74
2023/04/18 05:01:08;;;;;;;14.18;10.95;;;8.20;99.90;;;;;;6070233;23;98585;-74
2023/04/18 05:03:36;;;;;;;12.65;9.93;;;8.20;99.90;;;;;;6040951;23;101943;-74
2023/04/18 05:06:03;;;;;;;14.07;10.95;;;8.20;99.90;;;;;;6041258;23;101418;-73
2023/04/18 05:08:30;;;;;;;12.00;10.13;;;8.20;99.90;;;;;;6041188;23;98954;-74
2023/04/18 05:10:57;;;;;;;13.07;10.38;;;8.10;99.90;;;;;;6091687;23;97714;-74
2023/04/18 05:13:24;;;;;;;12.55;9.98;;;8.10;99.90;;;;;;6091119;23;99377;-73
2023/04/18 05:15:51;;;;;;;14.60;10.52;;;8.20;99.90;;;;;;6091242;23;99153;-74
2023/04/18 05:18:19;;;;;;;12.95;9.90;;;8.20;99.90;;;;;;6040308;23;99183;-73
2023/04/18 05:20:46;;;;;;;13.98;10.60;;;8.20;99.90;;;;;;6066268;23;98992;-74
2023/04/18 05:23:13;;;;;;;13.88;10.85;;;8.30;99.90;;;;;;6090768;23;99404;-74
2023/04/18 05:25:40;;;;;;;16.30;11.32;;;8.30;99.90;;;;;;6065284;23;98964;-74
2023/04/18 05:28:07;;;;;;;12.43;9.02;;;8.30;99.90;;;;;;6065102;23;98421;-74
2023/04/18 05:30:34;;;;;;;13.85;9.77;;;8.30;99.90;;;;;;6066558;23;99012;-74
2023/04/18 05:33:01;;;;;;;13.52;10.40;;;8.40;99.90;;;;;;6065184;23;100632;-74
2023/04/18 05:35:28;;;;;;;14.48;10.32;;;8.50;99.90;;;;;;6090891;23;99020;-74
2023/04/18 05:37:55;;;;;;;13.90;10.80;;;8.50;99.90;;;;;;6091439;23;98462;-74
2023/04/18 05:40:22;;;;;;;11.85;9.52;;;8.60;99.90;;;;;;6040798;23;98707;-74
2023/04/18 05:42:49;;;;;;;13.80;11.10;;;8.70;99.90;;;;;;6091126;23;99739;-74
2023/04/18 05:45:16;;;;;;;13.68;10.60;;;8.80;99.90;;;;;;6064798;23;99753;-74
2023/04/18 05:47:43;;;;;;;12.32;10.18;;;8.90;99.90;;;;;;6091295;23;98447;-74
2023/04/18 05:50:10;;;;;;;12.48;10.35;;;8.90;99.90;;;;;;6090600;23;98449;-74
2023/04/18 05:52:40;;;;;;;13.23;10.38;;;8.90;99.90;;;;;;6065029;23;99155;-74
2023/04/18 05:55:07;;;;;;;15.63;11.15;;;9.00;99.90;;;;;;6090659;23;100148;-75
2023/04/18 05:57:34;;;;;;;12.43;10.93;;;9.00;99.90;;;;;;6064960;23;98637;-74
2023/04/18 06:00:02;;;;;;;15.40;11.85;;;9.00;99.90;;;;;;6065951;23;97724;-74
2023/04/18 06:02:38;;;;;;;12.18;10.13;;;9.00;99.90;;;;;;6090724;23;98829;-74
2023/04/18 06:05:06;;;;;;;13.82;10.43;;;9.00;99.90;;;;;;6064288;23;101623;-74
2023/04/18 06:07:34;;;;;;;12.73;11.20;;;9.00;99.90;;;;;;6065375;23;99270;-74
2023/04/18 06:10:01;;;;;;;16.05;9.55;;;9.10;99.90;;;;;;6040710;23;98524;-74
2023/04/18 06:12:28;;;;;;;15.88;11.25;;;9.10;99.90;;;;;;6064869;23;101843;-74
2023/04/18 06:14:55;;;;;;;15.15;11.35;;;9.10;99.90;;;;;;6090664;23;98829;-74
2023/04/18 06:17:22;;;;;;;14.05;10.68;;;9.20;99.90;;;;;;6040651;23;98586;-74
2023/04/18 06:19:48;;;;;;;12.80;10.40;;;9.20;99.90;;;;;;6040690;23;98532;-74
2023/04/18 06:22:15;;;;;;;12.68;9.30;;;9.30;99.90;;;;;;6064099;23;101721;-74
2023/04/18 06:24:42;;;;;;;10.57;9.27;;;9.50;99.90;;;;;;6041349;23;102662;-74
2023/04/18 06:27:09;;;;;;;13.88;9.43;;;9.70;99.90;;;;;;6091289;23;98383;-74
2023/04/18 06:29:50;;;;;;;11.32;9.32;;;10.00;99.90;;;;;;6091652;23;98461;-74
2023/04/18 06:32:16;;;;;;;15.45;10.38;;;10.20;99.90;;;;;;6064564;23;100080;-74
2023/04/18 06:34:43;;;;;;;12.48;11.18;;;10.40;99.90;;;;;;6090482;23;100088;-74
2023/04/18 06:37:11;;;;;;;12.23;10.93;;;10.70;99.90;;;;;;6063983;23;98524;-74
2023/04/18 06:39:38;;;;;;;12.25;9.60;;;10.90;99.90;;;;;;6040937;23;98524;-74
2023/04/18 06:42:05;;;;;;;11.02;9.20;;;11.00;99.90;;;;;;6064380;23;118153;-74
2023/04/18 06:44:31;;;;;;;11.50;8.63;;;11.10;99.90;;;;;;6064610;23;100271;-74
2023/04/18 06:46:58;;;;;;;12.52;11.00;;;11.00;99.90;;;;;;6065772;23;98431;-74
2023/04/18 06:49:25;;;;;;;9.65;8.70;;;11.00;99.90;;;;;;6065230;23;97698;-74
2023/04/18 06:51:52;;;;;;;10.48;9.38;;;11.10;99.90;;;;;;6065134;23;99326;-74
2023/04/18 06:54:19;;;;;;;10.80;8.95;;;11.10;99.90;;;;;;6064268;23;101507;-74
2023/04/18 06:56:46;;;;;;;9.88;8.90;;;11.20;99.90;;;;;;6091029;23;99183;-74
2023/04/18 06:59:13;;;;;;;9.75;8.80;;;11.40;99.90;;;;;;6091328;23;98518;-74
2023/04/18 07:01:41;;;;;;;11.15;9.75;;;11.30;99.90;;;;;;6065562;23;99191;-74
2023/04/18 07:04:08;;;;;;;10.07;9.05;;;11.30;99.90;;;;;;6066704;23;99076;-74
2023/04/18 07:06:36;;;;;;;11.98;8.35;;;11.40;99.90;;;;;;6066568;23;98540;-74
2023/04/18 07:09:03;;;;;;;10.13;8.93;;;11.40;99.90;;;;;;6065890;23;99715;-74
2023/04/18 07:11:30;;;;;;;10.35;7.72;;;11.60;99.90;;;;;;6065876;23;102324;-74
2023/04/18 07:13:56;;;;;;;14.23;9.65;;;11.70;99.80;;;;;;6066652;23;99011;-74
2023/04/18 07:16:23;;;;;;;11.70;8.65;;;11.70;99.30;;;;;;6042186;23;98508;-74
2023/04/18 07:18:50;;;;;;;10.77;9.23;;;11.90;99.40;;;;;;6066589;23;98560;-74
2023/04/18 07:21:18;;;;;;;10.57;7.93;;;12.00;99.40;;;;;;6065147;23;102748;-74
2023/04/18 07:23:45;;;;;;;10.23;9.00;;;12.10;99.10;;;;;;6090941;23;99845;-74
2023/04/18 07:26:12;;;;;;;11.45;9.10;;;11.90;98.90;;;;;;6042161;23;98523;-74
2023/04/18 07:28:39;;;;;;;10.20;8.48;;;12.00;99.00;;;;;;6066428;23;99871;-74
2023/04/18 07:31:10;;;;;;;8.68;7.78;;;12.10;99.10;;;;;;6042156;23;101644;-74
2023/04/18 07:33:37;;;;;;;10.15;8.45;;;12.50;98.70;;;;;;6092178;23;101840;-74
2023/04/18 07:36:05;;;;;;;9.40;8.35;;;12.60;98.10;;;;;;6066038;23;98526;-74
2023/04/18 07:38:34;;;;;;;9.70;8.70;;;12.70;97.60;;;;;;6092918;23;98182;-74
2023/04/18 07:41:01;;;;;;;9.55;8.45;;;12.70;97.70;;;;;;6092328;23;99233;-74
2023/04/18 07:43:28;;;;;;;8.68;7.75;;;12.90;97.70;;;;;;6065509;23;102313;-74
2023/04/18 07:45:55;;;;;;;7.82;7.03;;;12.70;97.50;;;;;;6092219;23;99662;-74
2023/04/18 07:48:24;;;;;;;12.07;8.43;;;12.70;97.50;;;;;;6092335;23;98449;-74
2023/04/18 07:50:51;;;;;;;10.20;9.05;;;12.90;97.30;;;;;;6065444;23;113897;-74
2023/04/18 07:53:18;;;;;;;12.65;9.40;;;13.00;97.10;;;;;;6091868;23;99144;-74
2023/04/18 07:55:45;;;;;;;10.25;8.73;;;13.50;96.80;;;;;;6092504;23;98519;-74
2023/04/18 07:58:13;;;;;;;10.00;9.18;;;13.80;96.30;;;;;;6066251;23;98620;-74
2023/04/18 08:00:41;;;;;;;11.63;8.05;;;14.10;96.00;;;;;;6065503;23;100256;-74
2023/04/18 08:03:09;;;;;;;9.13;8.23;;;14.50;95.50;;;;;;6066558;23;99250;-74
2023/04/18 08:05:41;;;;;;;8.15;7.38;;;14.70;94.60;;;;;;6065787;23;99057;-74
2023/04/18 08:08:10;;;;;;;6.63;6.03;;;15.10;94.50;;;;;;6092519;23;98537;-74
2023/04/18 08:10:37;;;;;;;8.88;7.78;;;14.80;94.20;;;;;;6091433;23;100011;-74
2023/04/18 08:13:06;;;;;;;7.78;7.00;;;14.80;94.80;;;;;;6091998;23;99495;-74
2023/04/18 08:15:33;;;;;;;8.57;7.78;;;14.60;94.20;;;;;;6065903;23;98602;-74
2023/04/18 08:18:00;;;;;;;8.60;7.80;;;14.70;94.40;;;;;;6066608;23;98491;-74
2023/04/18 08:20:27;;;;;;;8.35;7.53;;;14.60;94.10;;;;;;6041051;23;108226;-74
2023/04/18 08:22:54;;;;;;;8.93;8.02;;;14.50;94.20;;;;;;6041584;23;101615;-74
2023/04/18 08:25:24;;;;;;;7.90;7.20;;;14.30;94.30;;;;;;6092096;23;98481;-74
2023/04/18 08:27:51;;;;;;;9.13;8.23;;;14.30;94.50;;;;;;6093077;23;97725;-74
2023/04/18 08:30:18;;;;;;;8.80;8.00;;;14.50;94.40;;;;;;6041900;23;99339;-74
2023/04/18 08:32:45;;;;;;;12.20;8.32;;;14.60;94.10;;;;;;6041785;23;99054;-74
2023/04/18 08:35:12;;;;;;;9.13;8.32;;;14.90;94.30;;;;;;6065797;23;99178;-75
2023/04/18 08:37:39;;;;;;;8.27;7.47;;;15.20;94.00;;;;;;6090986;23;98527;-75
2023/04/18 08:40:06;;;;;;;8.32;7.50;;;15.50;93.60;;;;;;6041858;23;99292;-74
2023/04/18 08:42:34;;;;;;;8.40;7.45;;;15.70;93.10;;;;;;6065840;23;98995;-75
2023/04/18 08:45:03;;;;;;;7.32;6.63;;;15.70;92.70;;;;;;6091935;23;98388;-74
2023/04/18 08:47:30;;;;;;;7.32;6.63;;;15.50;92.50;;;;;;6066322;23;98918;-74
2023/04/18 08:49:57;;;;;;;8.70;7.05;;;15.80;92.40;;;;;;6042009;23;99114;-74
2023/04/18 08:52:26;;;;;;;7.78;6.97;;;15.90;92.20;;;;;;6066287;23;99258;-74
2023/04/18 08:54:53;;;;;;;7.50;6.70;;;15.80;92.10;;;;;;6066541;23;98816;-74
2023/04/18 08:57:25;;;;;;;7.80;6.68;;;15.50;92.20;;;;;;6066004;23;98591;-75
2023/04/18 08:59:53;;;;;;;9.20;6.37;;;15.20;92.50;;;;;;6065556;23;99964;-75
2023/04/18 09:02:22;;;;;;;7.60;6.90;;;14.90;93.10;;;;;;6091820;23;99589;-74
2023/04/18 09:04:52;;;;;;;7.90;7.10;;;14.70;93.10;;;;;;6092009;23;98376;-74
2023/04/18 09:07:29;;;;;;;7.05;6.15;;;14.50;93.50;;;;;;6092475;23;98491;-74
2023/04/18 09:09:57;;;;;;;7.63;6.93;;;14.20;93.80;;;;;;6066735;23;99145;-74
2023/04/18 09:12:26;;;;;;;8.10;7.30;;;13.90;94.40;;;;;;6091754;23;98956;-74
2023/04/18 09:15:10;;;;;;;7.05;6.35;;;13.90;94.40;;;;;;6066494;23;98414;-74
2023/04/18 09:17:44;;;;;;;9.27;6.43;;;13.80;94.60;;;;;;6092424;23;97625;-74
2023/04/18 09:20:14;;;;;;;7.13;6.28;;;13.70;94.70;;;;;;6091965;23;99174;-74
2023/04/18 09:22:53;;;;;;;9.98;8.00;;;13.60;95.10;;;;;;6091421;23;98984;-74
2023/04/18 09:25:47;;;;;;;8.65;7.10;;;13.60;94.80;;;;;;6040498;23;99182;-74
2023/04/18 09:28:30;;;;;;;6.68;6.07;;;13.50;95.00;;;;;;6090212;23;98472;-74
2023/04/18 09:31:03;;;;;;;7.75;7.05;;;13.30;95.20;;;;;;6065696;23;101755;-74
2023/04/18 09:33:33;;;;;;;8.98;7.38;;;13.20;95.50;;;;;;6091547;23;99303;-74
2023/04/18 09:36:17;;;;;;;7.28;6.50;;;13.30;96.00;;;;;;6092249;23;98392;-74
2023/04/18 09:38:44;;;;;;;9.60;7.30;;;13.40;95.90;;;;;;6065699;23;98467;-74
2023/04/18 09:41:14;;;;;;;8.70;7.28;;;13.40;95.90;;;;;;6091558;23;99220;-74
2023/04/18 09:43:43;;;;;;;7.57;6.78;;;13.50;95.80;;;;;;6092011;23;98950;-74
2023/04/18 09:46:11;;;;;;;7.70;6.88;;;13.40;95.40;;;;;;6091996;23;98413;-74
2023/04/18 09:48:39;;;;;;;7.28;6.55;;;13.40;95.50;;;;;;6066005;23;99079;-74
2023/04/18 09:51:12;;;;;;;7.03;6.30;;;13.40;95.50;;;;;;6091072;23;99841;-74
2023/04/18 09:53:51;;;;;;;7.97;7.07;;;13.40;95.20;;;;;;6065353;23;100350;-74
2023/04/18 09:56:28;;;;;;;8.38;7.47;;;13.40;95.30;;;;;;6065840;23;98519;-75
2023/04/18 09:59:01;;;;;;;7.38;6.60;;;13.40;95.40;;;;;;6041342;23;98497;-74
2023/04/18 10:01:29;;;;;;;6.00;5.35;;;13.30;95.10;;;;;;6065531;23;101956;-74
2023/04/18 10:03:59;;;;;;;6.30;5.70;;;13.30;95.00;;;;;;6091430;23;98885;-74
2023/04/18 10:06:27;;;;;;;7.28;6.57;;;13.30;95.10;;;;;;6066008;23;98634;-74
2023/04/18 10:08:55;;;;;;;6.82;5.53;;;13.40;95.10;;;;;;6092130;23;98194;-74
2023/04/18 10:11:23;;;;;;;6.65;5.35;;;13.30;94.80;;;;;;6065335;23;100434;-74
2023/04/18 10:13:54;;;;;;;7.20;6.53;;;13.30;95.00;;;;;;6041454;23;99051;-74
2023/04/18 10:16:22;;;;;;;8.45;6.05;;;13.50;95.20;;;;;;6065545;23;99211;-74
2023/04/18 10:18:52;;;;;;;8.25;7.45;;;13.50;95.10;;;;;;6065714;23;98771;-74
2023/04/18 10:21:20;;;;;;;7.85;7.05;;;13.50;95.20;;;;;;6065234;23;101935;-74
2023/04/18 10:23:47;;;;;;;7.05;6.35;;;13.60;95.20;;;;;;6064687;23;101574;-74
2023/04/18 10:26:15;;;;;;;8.00;7.20;;;13.80;95.40;;;;;;6091651;23;98508;-74
2023/04/18 10:28:52;;;;;;;9.18;7.55;;;13.80;95.20;;;;;;6091424;23;98465;-74
2023/04/18 10:31:27;;;;;;;7.10;6.40;;;14.00;94.80;;;;;;6065128;23;101946;-74
2023/04/18 10:33:57;;;;;;;7.55;6.85;;;14.10;95.00;;;;;;6091334;23;98877;-74
2023/04/18 10:36:27;;;;;;;8.65;6.88;;;14.20;95.00;;;;;;6092321;23;98480;-74
2023/04/18 10:39:22;;;;;;;8.88;7.72;;;14.20;94.30;;;;;;6067085;23;98389;-74
2023/04/18 10:41:50;;;;;;;7.82;7.00;;;14.20;94.30;;;;;;6065862;23;99987;-75
2023/04/18 10:44:18;;;;;;;8.73;7.82;;;14.30;94.10;;;;;;6092415;23;99660;-75
2023/04/18 10:46:51;;;;;;;8.98;7.63;;;14.40;94.20;;;;;;6066157;23;98583;-75
2023/04/18 10:49:23;;;;;;;9.70;8.10;;;14.50;94.10;;;;;;6066862;23;98597;-74
2023/04/18 10:51:53;;;;;;;9.85;8.85;;;14.60;94.20;;;;;;6066677;23;99720;-75
2023/04/18 10:54:42;;;;;;;9.70;8.13;;;14.70;93.60;;;;;;6065947;23;101490;-74
2023/04/18 10:57:10;;;;;;;9.82;7.70;;;14.70;93.70;;;;;;6066686;23;98520;-74
2023/04/18 10:59:38;;;;;;;9.15;8.10;;;14.60;93.70;;;;;;6042843;23;97818;-74
2023/04/18 11:02:20;;;;;;;9.90;8.52;;;14.60;93.60;;;;;;6066482;23;99115;-75
2023/04/18 11:04:50;;;;;;;8.85;7.93;;;14.60;93.80;;;;;;6092046;23;100366;-75
2023/04/18 11:07:17;;;;;;;11.50;9.07;;;14.60;93.00;;;;;;6065840;23;99252;-74
2023/04/18 11:09:52;;;;;;;9.20;8.38;;;14.60;93.40;;;;;;6042328;23;98499;-74
2023/04/18 11:12:19;;;;;;;8.82;7.93;;;14.70;92.90;;;;;;6092407;23;102554;-74
2023/04/18 11:14:48;;;;;;;12.32;8.02;;;14.60;93.10;;;;;;6065745;23;101537;-75
2023/04/18 11:17:16;;;;;;;8.98;7.88;;;14.60;93.00;;;;;;6067265;23;99485;-74
2023/04/18 11:19:43;;;;;;;12.68;9.07;;;14.60;93.20;;;;;;6066559;23;98569;-74
2023/04/18 11:22:10;;;;;;;10.13;8.65;;;14.70;92.90;;;;;;6092236;23;99010;-75
2023/04/18 11:24:38;;;;;;;7.78;6.97;;;14.70;93.30;;;;;;6092762;23;100368;-75
2023/04/18 11:27:08;;;;;;;9.15;8.25;;;14.70;92.70;;;;;;6041832;23;98517;-74
2023/04/18 11:29:35;;;;;;;10.65;8.43;;;14.70;92.70;;;;;;6066811;23;98548;-74
2023/04/18 11:32:06;;;;;;;12.40;9.13;;;14.80;92.70;;;;;;6041200;23;102484;-75
2023/04/18 11:34:37;;;;;;;9.57;8.57;;;14.80;92.40;;;;;;6067054;23;98523;-75
2023/04/18 11:37:07;;;;;;;9.18;8.27;;;14.80;92.80;;;;;;6092217;23;98493;-75
2023/04/18 11:39:39;;;;;;;9.43;8.52;;;14.80;92.70;;;;;;6092771;23;98426;-75
2023/04/18 11:42:07;;;;;;;9.88;8.88;;;14.80;92.50;;;;;;6065749;23;99336;-75
2023/04/18 11:44:38;;;;;;;11.52;9.40;;;14.80;92.30;;;;;;6042170;23;98696;-74
2023/04/18 11:47:21;;;;;;;13.20;9.82;;;14.90;92.30;;;;;;6065974;23;99294;-75
2023/04/18 11:49:55;;;;;;;10.80;9.63;;;14.90;92.20;;;;;;6092809;23;97616;-75
2023/04/18 11:52:23;;;;;;;10.77;9.02;;;14.90;92.60;;;;;;6065992;23;100412;-75
2023/04/18 11:54:50;;;;;;;8.35;7.45;;;14.90;92.40;;;;;;6065774;23;98848;-75
2023/04/18 11:57:23;;;;;;;10.20;9.20;;;15.00;92.60;;;;;;6041670;23;99324;-72
2023/04/18 11:59:52;;;;;;;11.23;8.40;;;15.10;92.70;;;;;;6066045;23;98486;-73
2023/04/18 12:02:21;;;;;;;10.77;8.50;;;15.00;92.10;;;;;;6092075;23;99899;-72
2023/04/18 12:04:52;;;;;;;10.35;9.32;;;15.10;92.40;;;;;;6064736;23;116123;-72
2023/04/18 12:07:31;;;;;;;11.18;9.20;;;15.20;92.70;;;;;;6066051;23;98529;-72
2023/04/18 12:09:58;;;;;;;9.93;8.27;;;15.30;92.90;;;;;;6092298;23;98359;-72
2023/04/18 12:12:25;;;;;;;9.48;8.05;;;15.30;92.50;;;;;;6091964;23;99213;-72
2023/04/18 12:14:59;;;;;;;8.77;7.25;;;15.30;92.40;;;;;;6065891;23;108941;-75
2023/04/18 12:17:27;;;;;;;7.78;6.85;;;15.40;92.60;;;;;;6092432;23;98456;-75
2023/04/18 12:19:54;;;;;;;6.53;5.90;;;15.40;92.60;;;;;;6092127;23;98504;-75
2023/04/18 12:22:48;;;;;;;7.85;6.82;;;15.40;92.10;;;;;;6091490;23;99840;-74
2023/04/18 12:25:21;;;;;;;7.95;7.18;;;15.50;92.10;;;;;;6085371;23;99599;-75
2023/04/18 12:27:53;;;;;;;7.55;6.72;;;15.50;92.30;;;;;;6065915;23;98525;-75
2023/04/18 12:30:22;;;;;;;6.50;5.90;;;15.50;92.20;;;;;;6092315;23;98594;-75
2023/04/18 12:32:51;;;;;;;6.65;6.05;;;15.50;91.80;;;;;;6065980;23;99259;-75
2023/04/18 12:35:19;;;;;;;6.30;5.68;;;15.60;92.10;;;;;;6091668;23;98859;-75
2023/04/18 12:37:47;;;;;;;7.50;6.75;;;15.60;92.20;;;;;;6091947;23;98528;-75
2023/04/18 12:40:15;;;;;;;7.65;6.78;;;15.50;91.70;;;;;;6092392;23;97765;-75
2023/04/18 12:42:42;;;;;;;8.05;7.25;;;15.50;92.00;;;;;;6041352;23;101742;-75
2023/04/18 12:45:10;;;;;;;8.63;7.80;;;15.60;92.20;;;;;;6041669;23;99102;-75
2023/04/18 12:47:39;;;;;;;8.20;6.70;;;15.60;92.00;;;;;;6091810;23;99193;-75
2023/04/18 12:50:11;;;;;;;7.35;6.55;;;15.60;91.80;;;;;;6091905;23;98462;-75